Terminal Aerodrome Forecast
Issued by NWS

Home | Current Version | Previous Version | Graphics & Text | Print | Product List | Glossary On
Versions: 1 2 3 4 5 6 7 8 9 10 11 12 13 14 15 16 17
175
FTUS43 KTOP 160524
TAFMHK
TAF
KMHK 160524Z 1606/1706 07008KT 4SM -RA BR OVC004
     FM160800 05006KT 2SM RA BR OVC003
     FM161700 VRB06KT 3SM BR VCSH OVC003
     FM162200 34007KT 3SM BR VCSH OVC004
     FM170100 33009KT 5SM BR OVC008=

USA.gov is the U.S. government's official web portal to all federal, state and local government web resources and services.